createdAt,value
2022-12-24T00:00:32.397Z,92.72
2022-12-24T00:02:34.517Z,92.40
2022-12-24T00:04:37.470Z,92.26
2022-12-24T00:06:39.415Z,92.25
2022-12-24T00:08:41.629Z,92.29
2022-12-24T00:10:44.289Z,92.75
2022-12-24T00:12:46.229Z,92.96
2022-12-24T00:14:48.186Z,92.77
2022-12-24T00:16:50.194Z,92.59
2022-12-24T00:18:52.151Z,92.62
2022-12-24T00:20:54.136Z,92.84
2022-12-24T00:22:59.156Z,92.49
2022-12-24T00:25:01.093Z,92.68
2022-12-24T00:27:03.785Z,92.96
2022-12-24T00:29:06.782Z,92.71
2022-12-24T00:31:15.778Z,93.13
2022-12-24T00:33:24.108Z,93.13
2022-12-24T00:35:26.576Z,93.03
2022-12-24T00:37:28.435Z,93.23
2022-12-24T00:39:30.404Z,92.96
2022-12-24T00:41:32.332Z,92.88
2022-12-24T00:43:34.224Z,93.22
2022-12-24T00:45:36.092Z,92.94
2022-12-24T00:47:37.994Z,93.42
2022-12-24T00:49:40.027Z,93.16
2022-12-24T00:51:41.987Z,93.38
2022-12-24T00:53:44.035Z,92.86
2022-12-24T00:55:46.008Z,93.26
2022-12-24T00:57:47.923Z,93.09
2022-12-24T00:59:49.871Z,93.32
2022-12-24T01:01:52.057Z,93.35
2022-12-24T01:04:14.231Z,92.96
2022-12-24T01:06:19.441Z,93.37
2022-12-24T01:08:21.261Z,93.25
2022-12-24T01:10:23.153Z,92.83
2022-12-24T01:12:25.790Z,93.26
2022-12-24T01:14:27.744Z,93.04
2022-12-24T01:16:29.787Z,92.77
2022-12-24T01:18:31.777Z,92.94
2022-12-24T01:20:33.782Z,92.73
2022-12-24T01:22:36.776Z,92.92
2022-12-24T01:24:40.394Z,93.39
2022-12-24T01:26:43.174Z,93.40
2022-12-24T01:28:45.130Z,93.38
2022-12-24T01:30:47.429Z,93.00
2022-12-24T01:32:49.342Z,92.87
2022-12-24T01:34:54.228Z,93.15
2022-12-24T01:36:56.176Z,93.09
2022-12-24T01:38:58.137Z,93.07
2022-12-24T01:41:18.440Z,93.48
2022-12-24T01:43:25.081Z,93.57
2022-12-24T01:45:44.321Z,93.07
2022-12-24T01:47:46.298Z,93.51
2022-12-24T01:49:56.539Z,93.85
2022-12-24T01:52:05.629Z,93.73
2022-12-24T01:54:18.341Z,93.59
2022-12-24T01:56:21.386Z,93.52
2022-12-24T01:58:26.053Z,93.23
2022-12-24T02:00:29.110Z,93.87
2022-12-24T02:02:33.838Z,94.05
2022-12-24T02:05:15.225Z,93.54
2022-12-24T02:07:17.368Z,94.00
2022-12-24T02:09:19.277Z,93.92
2022-12-24T02:11:22.885Z,94.11
2022-12-24T02:13:24.906Z,94.03
2022-12-24T02:15:30.948Z,93.65
2022-12-24T02:17:48.441Z,93.60
2022-12-24T02:20:27.992Z,94.17
2022-12-24T02:23:06.946Z,93.56
2022-12-24T02:25:15.594Z,93.43
2022-12-24T02:27:54.312Z,94.02
2022-12-24T02:30:04.266Z,93.99
2022-12-24T02:32:14.573Z,93.64
2022-12-24T02:34:57.935Z,93.53
2022-12-24T02:37:08.323Z,93.65
2022-12-24T02:39:20.904Z,93.57
2022-12-24T02:41:27.361Z,94.08
2022-12-24T02:43:39.817Z,93.64
2022-12-24T02:45:45.857Z,94.28
2022-12-24T02:47:49.286Z,94.36
2022-12-24T02:49:51.250Z,94.21
2022-12-24T02:51:53.140Z,94.29
2022-12-24T02:53:55.367Z,94.50
2022-12-24T02:56:13.529Z,94.18
2022-12-24T02:58:40.185Z,94.56
2022-12-24T03:01:16.511Z,94.12
2022-12-24T03:03:43.415Z,94.49
2022-12-24T03:05:48.603Z,94.32
2022-12-24T03:08:05.085Z,94.48
2022-12-24T03:10:24.461Z,94.55
2022-12-24T03:12:44.521Z,94.68
2022-12-24T03:14:48.923Z,94.35
2022-12-24T03:16:51.055Z,94.77
2022-12-24T03:18:55.655Z,94.94
2022-12-24T03:21:21.095Z,94.28
2022-12-24T03:23:22.953Z,94.24
2022-12-24T03:25:26.542Z,94.07
2022-12-24T03:27:31.140Z,94.67
2022-12-24T03:29:33.455Z,94.43
2022-12-24T03:31:49.869Z,94.66
2022-12-24T03:33:51.976Z,94.52
2022-12-24T03:35:53.881Z,94.54
2022-12-24T03:37:55.876Z,94.53
2022-12-24T03:39:57.799Z,94.56
2022-12-24T03:41:59.678Z,94.02
2022-12-24T03:44:01.608Z,93.88
2022-12-24T03:46:08.291Z,93.75
2022-12-24T03:48:10.353Z,93.82
2022-12-24T03:50:12.251Z,93.92
2022-12-24T03:52:14.181Z,93.95
2022-12-24T03:54:16.012Z,94.16
2022-12-24T03:56:17.961Z,94.28
2022-12-24T03:58:19.801Z,93.86
2022-12-24T04:00:21.781Z,93.86
2022-12-24T04:02:23.837Z,93.73
2022-12-24T04:04:25.766Z,93.56
2022-12-24T04:06:27.888Z,94.02
2022-12-24T04:08:29.799Z,94.10
2022-12-24T04:10:31.654Z,93.82
2022-12-24T04:12:33.532Z,94.31
2022-12-24T04:14:35.413Z,93.82
2022-12-24T04:16:40.236Z,94.13
2022-12-24T04:18:42.760Z,94.18
2022-12-24T04:20:44.612Z,93.79
2022-12-24T04:22:46.464Z,93.56
2022-12-24T04:24:49.345Z,93.90
2022-12-24T04:26:51.169Z,93.52
2022-12-24T04:28:53.497Z,93.61
2022-12-24T04:30:59.766Z,93.96
2022-12-24T04:33:01.609Z,93.71
2022-12-24T04:35:03.578Z,93.31
2022-12-24T04:37:06.433Z,93.53
2022-12-24T04:39:08.479Z,93.68
2022-12-24T04:41:24.415Z,93.47
2022-12-24T04:43:28.099Z,92.91
2022-12-24T04:45:30.161Z,92.95
2022-12-24T04:47:32.056Z,92.59
2022-12-24T04:49:33.963Z,93.25
2022-12-24T04:51:37.126Z,92.79
2022-12-24T04:53:40.053Z,92.64
2022-12-24T04:55:46.162Z,92.38
2022-12-24T04:57:52.889Z,92.51
2022-12-24T04:59:55.265Z,92.12
2022-12-24T05:01:57.448Z,91.69
2022-12-24T05:04:00.621Z,91.46
2022-12-24T05:06:07.373Z,92.04
2022-12-24T05:08:09.328Z,91.73
2022-12-24T05:10:11.416Z,91.61
2022-12-24T05:12:13.334Z,91.58
2022-12-24T05:14:15.236Z,91.67
2022-12-24T05:16:18.870Z,90.91
2022-12-24T05:18:21.571Z,91.11
2022-12-24T05:20:23.434Z,91.48
2022-12-24T05:22:43.853Z,90.98
2022-12-24T05:25:04.565Z,90.80
2022-12-24T05:27:06.467Z,91.46
2022-12-24T05:29:09.476Z,90.84
2022-12-24T05:31:11.656Z,91.05
2022-12-24T05:33:13.595Z,91.10
2022-12-24T05:35:15.477Z,91.08
2022-12-24T05:37:17.442Z,91.38
2022-12-24T05:39:19.460Z,91.37
2022-12-24T05:41:21.830Z,91.82
2022-12-24T05:43:23.816Z,91.66
2022-12-24T05:45:25.696Z,91.20
2022-12-24T05:47:27.711Z,91.35
2022-12-24T05:49:31.042Z,91.60
2022-12-24T05:51:33.019Z,91.70
2022-12-24T05:53:36.807Z,91.48
2022-12-24T05:55:38.750Z,91.54
2022-12-24T05:57:41.685Z,91.31
2022-12-24T05:59:43.824Z,91.47
2022-12-24T06:01:48.319Z,91.60
2022-12-24T06:03:51.472Z,91.30
2022-12-24T06:06:07.374Z,91.51
2022-12-24T06:08:09.247Z,91.30
2022-12-24T06:10:11.297Z,91.79
2022-12-24T06:12:13.293Z,91.30
2022-12-24T06:14:15.284Z,91.48
2022-12-24T06:16:19.339Z,91.50
2022-12-24T06:18:21.288Z,91.56
2022-12-24T06:20:23.310Z,91.39
2022-12-24T06:22:25.251Z,91.32
2022-12-24T06:24:27.171Z,91.11
2022-12-24T06:26:29.089Z,90.64
2022-12-24T06:28:33.605Z,90.80
2022-12-24T06:30:35.561Z,90.92
2022-12-24T06:32:37.441Z,90.99
2022-12-24T06:34:39.885Z,90.24
2022-12-24T06:36:44.962Z,90.16
2022-12-24T06:38:48.015Z,90.70
2022-12-24T06:40:50.139Z,90.79
2022-12-24T06:42:52.340Z,90.44
2022-12-24T06:44:55.382Z,90.40
2022-12-24T06:46:57.574Z,90.33
2022-12-24T06:49:05.011Z,90.84
2022-12-24T06:51:07.210Z,90.90
2022-12-24T06:53:09.843Z,90.89
2022-12-24T06:55:11.747Z,90.95
2022-12-24T06:57:13.745Z,90.78
2022-12-24T06:59:15.893Z,90.59
2022-12-24T07:01:20.653Z,90.79
2022-12-24T07:03:22.786Z,90.59
2022-12-24T07:05:24.801Z,90.52
2022-12-24T07:07:26.727Z,90.64
2022-12-24T07:09:28.727Z,90.75
2022-12-24T07:11:30.790Z,91.05
2022-12-24T07:13:34.537Z,90.63
2022-12-24T07:15:36.418Z,91.08
2022-12-24T07:17:39.353Z,90.86
2022-12-24T07:19:41.361Z,90.44
2022-12-24T07:21:43.380Z,90.69
2022-12-24T07:23:45.355Z,90.32
2022-12-24T07:25:47.543Z,90.27
2022-12-24T07:27:49.475Z,90.46
2022-12-24T07:29:51.372Z,90.68
2022-12-24T07:31:53.311Z,90.22
2022-12-24T07:33:58.260Z,90.40
2022-12-24T07:36:08.000Z,90.01
2022-12-24T07:38:09.933Z,90.75
2022-12-24T07:40:12.196Z,90.31
2022-12-24T07:42:14.074Z,90.43
2022-12-24T07:44:16.680Z,90.49
2022-12-24T07:46:18.760Z,90.40
2022-12-24T07:48:20.760Z,90.64
2022-12-24T07:50:22.666Z,90.19
2022-12-24T07:52:24.626Z,90.57
2022-12-24T07:54:26.537Z,90.73
2022-12-24T07:56:29.405Z,90.35
2022-12-24T07:58:31.446Z,90.61
2022-12-24T08:00:33.388Z,90.49
2022-12-24T08:02:37.146Z,90.56
2022-12-24T08:04:39.584Z,90.13
2022-12-24T08:06:41.625Z,90.22
2022-12-24T08:08:43.647Z,90.82
2022-12-24T08:10:46.231Z,90.67
2022-12-24T08:12:48.561Z,91.25
2022-12-24T08:14:50.567Z,90.41
2022-12-24T08:16:52.507Z,91.10
2022-12-24T08:18:55.720Z,90.51
2022-12-24T08:20:57.868Z,90.48
2022-12-24T08:22:59.827Z,90.70
2022-12-24T08:25:04.532Z,90.55
2022-12-24T08:27:06.574Z,90.56
2022-12-24T08:29:08.794Z,90.79
2022-12-24T08:31:11.861Z,90.60
2022-12-24T08:33:13.891Z,90.48
2022-12-24T08:35:15.939Z,90.83
2022-12-24T08:37:18.005Z,90.97
2022-12-24T08:39:19.925Z,90.20
2022-12-24T08:41:21.917Z,91.06
2022-12-24T08:43:28.711Z,90.87
2022-12-24T08:45:36.136Z,90.70
2022-12-24T08:47:43.282Z,90.68
2022-12-24T08:49:45.279Z,91.05
2022-12-24T08:51:47.210Z,90.93
2022-12-24T08:53:49.242Z,91.27
2022-12-24T08:55:55.877Z,91.03
2022-12-24T08:57:58.793Z,90.91
2022-12-24T09:00:00.684Z,90.57
2022-12-24T09:02:03.002Z,90.56
2022-12-24T09:04:05.449Z,90.67
2022-12-24T09:06:08.187Z,90.21
2022-12-24T09:08:10.135Z,90.31
2022-12-24T09:10:12.326Z,90.43
2022-12-24T09:12:14.378Z,90.54
2022-12-24T09:14:16.376Z,90.58
2022-12-24T09:16:18.467Z,90.31
2022-12-24T09:18:20.413Z,89.71
2022-12-24T09:20:23.111Z,90.30
2022-12-24T09:22:26.189Z,90.48
2022-12-24T09:24:28.253Z,90.11
2022-12-24T09:26:31.646Z,89.61
2022-12-24T09:28:33.638Z,90.04
2022-12-24T09:30:37.992Z,89.84
2022-12-24T09:32:39.942Z,90.08
2022-12-24T09:34:41.865Z,89.73
2022-12-24T09:36:43.814Z,90.34
2022-12-24T09:38:46.504Z,90.49
2022-12-24T09:40:54.405Z,90.32
2022-12-24T09:42:56.479Z,89.63
2022-12-24T09:45:17.019Z,89.52
2022-12-24T09:47:44.178Z,90.21
2022-12-24T09:49:50.057Z,89.53
2022-12-24T09:52:00.616Z,90.28
2022-12-24T09:54:18.733Z,89.74
2022-12-24T09:56:35.137Z,89.10
2022-12-24T09:58:47.792Z,89.65
2022-12-24T10:00:50.590Z,89.41
2022-12-24T10:02:53.162Z,89.79
2022-12-24T10:04:55.756Z,89.52
2022-12-24T10:07:16.742Z,89.73
2022-12-24T10:09:33.566Z,89.13
2022-12-24T10:12:17.453Z,89.82
2022-12-24T10:14:30.079Z,88.98
2022-12-24T10:17:02.722Z,89.31
2022-12-24T10:19:14.748Z,89.78
2022-12-24T10:21:49.409Z,89.23
2022-12-24T10:24:12.548Z,89.70
2022-12-24T10:26:43.907Z,89.40
2022-12-24T10:28:58.139Z,89.64
2022-12-24T10:31:04.403Z,89.51
2022-12-24T10:33:20.053Z,88.94
2022-12-24T10:35:37.546Z,88.89
2022-12-24T10:37:41.341Z,89.30
2022-12-24T10:39:44.011Z,88.84
2022-12-24T10:41:52.140Z,89.16
2022-12-24T10:43:55.559Z,88.29
2022-12-24T10:46:01.916Z,88.30
2022-12-24T10:48:12.265Z,88.29
2022-12-24T10:50:35.968Z,88.06
2022-12-24T10:52:40.670Z,88.52
2022-12-24T10:55:24.689Z,88.47
2022-12-24T10:57:27.356Z,88.16
2022-12-24T10:59:43.905Z,87.65
2022-12-24T11:01:48.053Z,88.03
2022-12-24T11:04:15.088Z,87.72
2022-12-24T11:06:23.512Z,87.85
2022-12-24T11:08:26.426Z,87.91
2022-12-24T11:10:28.443Z,87.83
2022-12-24T11:12:39.000Z,88.10
2022-12-24T11:14:41.381Z,88.83
2022-12-24T11:16:54.920Z,88.44
2022-12-24T11:19:05.713Z,88.19
2022-12-24T11:21:08.509Z,88.09
2022-12-24T11:23:17.947Z,87.99
2022-12-24T11:25:34.274Z,88.58
2022-12-24T11:27:47.507Z,88.18
2022-12-24T11:29:49.576Z,87.98
2022-12-24T11:31:53.644Z,88.16
2022-12-24T11:33:55.660Z,88.62
2022-12-24T11:36:06.865Z,88.56
2022-12-24T11:38:12.464Z,87.68
2022-12-24T11:40:23.412Z,87.94
2022-12-24T11:42:41.001Z,87.07
2022-12-24T11:44:49.894Z,87.29
2022-12-24T11:46:57.336Z,87.01
2022-12-24T11:49:12.902Z,87.19
2022-12-24T11:51:26.575Z,87.62
2022-12-24T11:53:50.760Z,87.39
2022-12-24T11:55:56.530Z,87.41
2022-12-24T11:58:12.763Z,87.29
2022-12-24T12:00:15.076Z,87.22
2022-12-24T12:02:36.869Z,87.44
2022-12-24T12:04:40.852Z,87.98
2022-12-24T12:06:59.023Z,88.03
2022-12-24T12:09:05.872Z,87.56
2022-12-24T12:11:14.497Z,88.13
2022-12-24T12:13:27.354Z,87.94
2022-12-24T12:15:41.875Z,87.82
2022-12-24T12:18:05.790Z,88.19
2022-12-24T12:20:18.064Z,87.30
2022-12-24T12:22:42.662Z,87.74
2022-12-24T12:24:51.508Z,88.20
2022-12-24T12:27:04.806Z,88.11
2022-12-24T12:29:27.390Z,88.21
2022-12-24T12:31:36.717Z,88.09
2022-12-24T12:33:55.536Z,87.90
2022-12-24T12:36:01.979Z,88.29
2022-12-24T12:38:18.276Z,88.40
2022-12-24T12:40:23.410Z,88.79
2022-12-24T12:42:40.884Z,88.36
2022-12-24T12:45:07.236Z,88.48
2022-12-24T12:47:39.182Z,87.74
2022-12-24T12:49:47.167Z,88.80
2022-12-24T12:52:13.295Z,87.85
2022-12-24T12:54:25.758Z,87.87
2022-12-24T12:56:35.742Z,88.14
2022-12-24T12:59:19.337Z,87.78
2022-12-24T13:01:32.958Z,87.55
2022-12-24T13:03:48.538Z,87.84
2022-12-24T13:06:11.823Z,87.64
2022-12-24T13:08:41.816Z,87.44
2022-12-24T13:11:13.180Z,88.18
2022-12-24T13:13:49.214Z,87.34
2022-12-24T13:16:21.829Z,87.01
2022-12-24T13:18:35.776Z,87.58
2022-12-24T13:20:43.238Z,87.37
2022-12-24T13:22:57.003Z,87.98
2022-12-24T13:24:59.016Z,87.37
2022-12-24T13:27:19.671Z,87.18
2022-12-24T13:29:36.701Z,87.83
2022-12-24T13:31:38.725Z,87.62
2022-12-24T13:33:42.644Z,87.81
2022-12-24T13:36:00.125Z,88.00
2022-12-24T13:38:34.935Z,87.40
2022-12-24T13:40:37.415Z,87.96
2022-12-24T13:43:07.852Z,88.02
2022-12-24T13:45:34.470Z,88.28
2022-12-24T13:47:42.645Z,87.68
2022-12-24T13:49:52.952Z,87.79
2022-12-24T13:52:13.185Z,87.55
2022-12-24T13:54:28.713Z,87.58
2022-12-24T13:56:37.409Z,87.95
2022-12-24T13:58:49.633Z,87.78
2022-12-24T14:01:05.154Z,88.24
2022-12-24T14:03:26.289Z,87.92
2022-12-24T14:05:36.743Z,87.90
2022-12-24T14:07:50.428Z,87.81
2022-12-24T14:09:53.067Z,87.39
2022-12-24T14:11:59.008Z,88.11
2022-12-24T14:14:05.035Z,87.78
2022-12-24T14:16:15.348Z,88.25
2022-12-24T14:18:25.499Z,88.12
2022-12-24T14:20:27.539Z,88.31
2022-12-24T14:22:34.399Z,88.66
2022-12-24T14:24:53.925Z,88.46
2022-12-24T14:27:21.960Z,88.47
2022-12-24T14:29:34.545Z,88.16
2022-12-24T14:31:36.656Z,88.69
2022-12-24T14:33:38.596Z,88.81
2022-12-24T14:35:51.587Z,88.99
2022-12-24T14:38:19.011Z,88.73
2022-12-24T14:40:27.611Z,88.63
2022-12-24T14:43:01.392Z,88.99
2022-12-24T14:45:28.414Z,89.15
2022-12-24T14:48:10.924Z,88.86
2022-12-24T14:50:34.913Z,89.54
2022-12-24T14:53:07.354Z,89.67
2022-12-24T14:55:42.929Z,89.20
2022-12-24T14:57:48.955Z,89.10
2022-12-24T15:00:20.380Z,90.08
2022-12-24T15:02:30.622Z,89.52
2022-12-24T15:04:38.817Z,90.18
2022-12-24T15:07:05.379Z,89.47
2022-12-24T15:09:17.736Z,90.05
2022-12-24T15:11:31.103Z,89.52
2022-12-24T15:13:44.523Z,89.79
2022-12-24T15:15:52.875Z,89.92
2022-12-24T15:17:59.242Z,90.35
2022-12-24T15:20:04.366Z,90.33
2022-12-24T15:22:11.168Z,90.73
2022-12-24T15:24:35.081Z,90.58
2022-12-24T15:26:49.947Z,90.40
2022-12-24T15:29:00.027Z,90.42
2022-12-24T15:31:14.874Z,90.80
2022-12-24T15:33:19.864Z,90.95
2022-12-24T15:35:56.891Z,90.20
2022-12-24T15:37:59.517Z,90.63
2022-12-24T15:40:11.634Z,90.53
2022-12-24T15:42:48.773Z,91.13
2022-12-24T15:45:12.738Z,91.00
2022-12-24T15:47:29.242Z,90.39
2022-12-24T15:49:44.806Z,90.94
2022-12-24T15:51:53.592Z,90.38
2022-12-24T15:54:14.909Z,90.39
2022-12-24T15:56:35.903Z,90.86
2022-12-24T15:58:48.559Z,90.53
2022-12-24T16:01:13.384Z,90.83
2022-12-24T16:03:23.561Z,90.89
2022-12-24T16:05:40.033Z,90.29
2022-12-24T16:08:10.224Z,90.80
2022-12-24T16:10:24.955Z,90.16
2022-12-24T16:12:42.365Z,90.25
2022-12-24T16:14:59.430Z,89.36
2022-12-24T16:17:02.365Z,89.96
2022-12-24T16:19:06.402Z,89.23
2022-12-24T16:21:35.192Z,89.51
2022-12-24T16:23:52.906Z,89.66
2022-12-24T16:25:55.825Z,89.68
2022-12-24T16:28:00.646Z,89.33
2022-12-24T16:30:05.240Z,89.22
2022-12-24T16:32:25.492Z,89.20
2022-12-24T16:34:32.341Z,89.24
2022-12-24T16:36:34.370Z,89.60
2022-12-24T16:38:56.369Z,89.62
2022-12-24T16:40:58.230Z,89.44
2022-12-24T16:43:24.533Z,89.34
2022-12-24T16:45:36.573Z,89.29
2022-12-24T16:47:43.067Z,89.42
2022-12-24T16:49:45.737Z,89.00
2022-12-24T16:51:48.688Z,89.71
2022-12-24T16:53:50.842Z,89.74
2022-12-24T16:55:53.835Z,89.51
2022-12-24T16:57:56.668Z,89.46
2022-12-24T16:59:58.694Z,90.34
2022-12-24T17:02:01.047Z,90.32
2022-12-24T17:04:04.362Z,90.92
2022-12-24T17:06:07.737Z,90.81
2022-12-24T17:08:10.105Z,90.87
2022-12-24T17:10:14.452Z,90.41
2022-12-24T17:12:16.716Z,90.80
2022-12-24T17:14:20.922Z,90.72
2022-12-24T17:16:23.098Z,90.80
2022-12-24T17:18:26.125Z,90.76
2022-12-24T17:20:28.153Z,90.89
2022-12-24T17:22:30.264Z,90.71
2022-12-24T17:24:32.248Z,91.70
2022-12-24T17:26:40.361Z,91.38
2022-12-24T17:28:43.000Z,91.65
2022-12-24T17:30:44.983Z,91.71
2022-12-24T17:32:46.949Z,91.73
2022-12-24T17:34:48.968Z,91.65
2022-12-24T17:36:51.948Z,91.98
2022-12-24T17:38:55.895Z,91.68
2022-12-24T17:41:08.044Z,91.66
2022-12-24T17:43:12.073Z,91.24
2022-12-24T17:45:14.256Z,91.49
2022-12-24T17:47:16.209Z,91.28
2022-12-24T17:49:18.097Z,91.28
2022-12-24T17:51:24.074Z,91.19
2022-12-24T17:53:26.128Z,91.48
2022-12-24T17:55:29.001Z,90.69
2022-12-24T17:57:31.036Z,91.16
2022-12-24T17:59:32.953Z,90.50
2022-12-24T18:01:35.042Z,90.53
2022-12-24T18:03:37.083Z,90.65
2022-12-24T18:05:41.317Z,90.17
2022-12-24T18:07:43.259Z,90.65
2022-12-24T18:09:48.161Z,90.61
2022-12-24T18:11:50.084Z,90.85
2022-12-24T18:13:56.915Z,90.69
2022-12-24T18:16:03.620Z,90.23
2022-12-24T18:18:07.670Z,90.58
2022-12-24T18:20:10.109Z,90.48
2022-12-24T18:22:12.054Z,90.69
2022-12-24T18:24:15.054Z,90.75
2022-12-24T18:26:18.819Z,90.88
2022-12-24T18:28:20.816Z,90.58
2022-12-24T18:30:27.696Z,90.71
2022-12-24T18:32:31.084Z,90.66
2022-12-24T18:34:34.081Z,90.34
2022-12-24T18:36:36.499Z,90.48
2022-12-24T18:38:39.877Z,90.36
2022-12-24T18:40:42.768Z,90.12
2022-12-24T18:42:47.499Z,89.96
2022-12-24T18:44:51.839Z,90.01
2022-12-24T18:46:54.192Z,89.91
2022-12-24T18:48:57.868Z,89.97
2022-12-24T18:51:01.078Z,89.86
2022-12-24T18:53:03.979Z,89.78
2022-12-24T18:55:07.302Z,89.57
2022-12-24T18:57:10.126Z,89.78
2022-12-24T18:59:18.485Z,89.35
2022-12-24T19:01:27.052Z,89.84
2022-12-24T19:03:30.030Z,90.15
2022-12-24T19:05:32.124Z,89.71
2022-12-24T19:07:34.413Z,89.65
2022-12-24T19:09:38.392Z,89.92
2022-12-24T19:11:40.996Z,89.50
2022-12-24T19:13:48.186Z,89.92
2022-12-24T19:15:53.756Z,89.64
2022-12-24T19:17:57.195Z,90.38
2022-12-24T19:19:59.230Z,89.52
2022-12-24T19:22:02.587Z,89.59
2022-12-24T19:24:05.103Z,90.14
2022-12-24T19:26:07.501Z,89.36
2022-12-24T19:28:09.976Z,89.86
2022-12-24T19:30:18.242Z,89.47
2022-12-24T19:32:20.553Z,89.17
2022-12-24T19:34:23.934Z,89.07
2022-12-24T19:36:40.003Z,89.88
2022-12-24T19:38:46.195Z,89.46
2022-12-24T19:40:48.343Z,89.36
2022-12-24T19:42:54.614Z,89.09
2022-12-24T19:44:59.127Z,89.60
2022-12-24T19:47:01.276Z,89.65
2022-12-24T19:49:10.347Z,89.56
2022-12-24T19:51:19.938Z,89.37
2022-12-24T19:53:23.907Z,89.15
2022-12-24T19:55:26.060Z,89.29
2022-12-24T19:57:28.195Z,89.05
2022-12-24T19:59:31.113Z,89.59
2022-12-24T20:01:35.461Z,89.80
2022-12-24T20:03:37.837Z,90.03
2022-12-24T20:05:43.121Z,89.64
2022-12-24T20:07:45.095Z,89.52
2022-12-24T20:09:47.075Z,90.13
2022-12-24T20:11:52.179Z,89.76
2022-12-24T20:14:00.802Z,90.11
2022-12-24T20:16:08.837Z,89.91
2022-12-24T20:18:14.908Z,89.32
2022-12-24T20:20:16.917Z,89.86
2022-12-24T20:22:18.904Z,89.49
2022-12-24T20:24:22.014Z,89.17
2022-12-24T20:26:28.614Z,89.49
2022-12-24T20:28:35.085Z,89.51
2022-12-24T20:30:37.277Z,89.69
2022-12-24T20:32:42.195Z,89.68
2022-12-24T20:34:48.213Z,89.33
2022-12-24T20:36:50.166Z,89.94
2022-12-24T20:38:52.668Z,89.61
2022-12-24T20:40:57.569Z,89.90
2022-12-24T20:42:59.591Z,89.67
2022-12-24T20:45:02.258Z,89.85
2022-12-24T20:47:04.446Z,89.57
2022-12-24T20:49:11.149Z,89.44
2022-12-24T20:51:24.587Z,89.62
2022-12-24T20:53:29.252Z,89.59
2022-12-24T20:55:35.056Z,89.93
2022-12-24T20:57:38.045Z,90.20
2022-12-24T20:59:40.608Z,90.21
2022-12-24T21:01:42.776Z,89.81
2022-12-24T21:03:47.750Z,89.80
2022-12-24T21:05:49.717Z,89.77
2022-12-24T21:07:51.830Z,90.07
2022-12-24T21:09:54.822Z,90.11
2022-12-24T21:11:56.873Z,89.95
2022-12-24T21:13:59.126Z,90.45
2022-12-24T21:16:01.015Z,89.76
2022-12-24T21:18:11.265Z,90.10
2022-12-24T21:20:19.847Z,90.03
2022-12-24T21:22:21.868Z,89.78
2022-12-24T21:24:27.972Z,90.24
2022-12-24T21:26:34.970Z,89.59
2022-12-24T21:28:50.648Z,90.09
2022-12-24T21:30:56.881Z,90.36
2022-12-24T21:33:06.060Z,89.63
2022-12-24T21:35:18.843Z,90.33
2022-12-24T21:37:25.219Z,89.89
2022-12-24T21:39:29.475Z,89.96
2022-12-24T21:41:38.549Z,89.80
2022-12-24T21:43:41.129Z,90.25
2022-12-24T21:45:49.866Z,89.87
2022-12-24T21:47:52.101Z,89.89
2022-12-24T21:52:27.209Z,90.36
2022-12-24T21:54:42.972Z,89.99
2022-12-24T21:57:06.079Z,89.75
2022-12-24T21:59:32.696Z,89.80
2022-12-24T22:01:36.480Z,90.08
2022-12-24T22:03:39.624Z,89.95
2022-12-24T22:05:42.637Z,90.34
2022-12-24T22:08:06.131Z,90.15
2022-12-24T22:10:31.117Z,90.03
2022-12-24T22:12:39.017Z,90.09
2022-12-24T22:14:46.775Z,90.44
2022-12-24T22:16:53.878Z,90.63
2022-12-24T22:19:00.101Z,90.23
2022-12-24T22:21:05.554Z,90.19
2022-12-24T22:23:11.928Z,90.62
2022-12-24T22:25:16.692Z,90.32
2022-12-24T22:27:34.414Z,90.42
2022-12-24T22:29:42.261Z,90.53
2022-12-24T22:31:48.213Z,90.80
2022-12-24T22:33:57.149Z,90.57
2022-12-24T22:36:05.113Z,90.85
2022-12-24T22:38:12.141Z,90.26
2022-12-24T22:40:22.947Z,90.25
2022-12-24T22:42:27.863Z,90.73
2022-12-24T22:44:29.789Z,90.28
2022-12-24T22:46:33.918Z,90.34
2022-12-24T22:48:37.006Z,90.48
2022-12-24T22:50:42.464Z,90.54
2022-12-24T22:52:44.370Z,90.51
2022-12-24T22:54:56.121Z,91.07
2022-12-24T22:56:59.885Z,90.46
2022-12-24T22:59:02.051Z,90.71
2022-12-24T23:01:05.188Z,90.92
2022-12-24T23:03:15.329Z,90.14
2022-12-24T23:05:17.805Z,90.56
2022-12-24T23:07:19.836Z,90.26
2022-12-24T23:09:21.836Z,90.49
2022-12-24T23:11:23.825Z,90.64
2022-12-24T23:13:44.467Z,90.21
2022-12-24T23:15:52.531Z,90.42
2022-12-24T23:17:55.462Z,90.17
2022-12-24T23:19:57.407Z,90.19
2022-12-24T23:22:00.862Z,90.17
2022-12-24T23:24:03.356Z,90.45
2022-12-24T23:26:07.550Z,90.26
2022-12-24T23:28:11.473Z,90.42
2022-12-24T23:30:27.500Z,90.30
2022-12-24T23:32:37.158Z,90.85
2022-12-24T23:34:41.081Z,90.75
2022-12-24T23:36:42.947Z,90.34
2022-12-24T23:38:45.863Z,89.94
2022-12-24T23:40:47.838Z,90.14
2022-12-24T23:42:51.813Z,90.41
2022-12-24T23:44:59.750Z,90.02
2022-12-24T23:47:02.507Z,90.46
2022-12-24T23:49:17.617Z,90.64
2022-12-24T23:51:23.761Z,90.61
2022-12-24T23:53:25.694Z,90.61
2022-12-24T23:55:27.600Z,90.49
2022-12-24T23:57:29.587Z,90.04
2022-12-24T23:59:34.162Z,90.13
